createdAt,value
2019-03-15T00:04:08.408Z,5.02
2019-03-15T00:06:35.014Z,5.03
2019-03-15T00:09:01.601Z,4.99
2019-03-15T00:11:28.207Z,4.96
2019-03-15T00:13:54.949Z,4.93
2019-03-15T00:16:21.661Z,4.93
2019-03-15T00:18:48.354Z,4.94
2019-03-15T00:21:14.989Z,4.95
2019-03-15T00:23:41.604Z,4.96
2019-03-15T00:26:08.312Z,4.96
2019-03-15T00:28:35.014Z,4.93
2019-03-15T00:31:01.630Z,4.91
2019-03-15T00:33:28.252Z,4.92
2019-03-15T00:35:54.946Z,4.91
2019-03-15T00:38:21.574Z,4.91
2019-03-15T00:40:48.196Z,4.87
2019-03-15T00:43:14.935Z,4.87
2019-03-15T00:45:41.616Z,4.88
2019-03-15T00:48:08.240Z,4.85
2019-03-15T00:50:34.836Z,4.84
2019-03-15T00:53:01.438Z,4.80
2019-03-15T00:55:28.037Z,4.77
2019-03-15T00:57:54.658Z,4.75
2019-03-15T01:00:21.444Z,4.73
2019-03-15T01:02:48.152Z,4.71
2019-03-15T01:05:15.305Z,4.71
2019-03-15T01:07:41.919Z,4.72
2019-03-15T01:10:23.324Z,4.74
2019-03-15T01:12:47.858Z,4.76
2019-03-15T01:15:14.567Z,4.77
2019-03-15T01:17:41.175Z,4.78
2019-03-15T01:20:07.827Z,4.78
2019-03-15T01:22:34.430Z,4.79
2019-03-15T01:25:01.118Z,4.81
2019-03-15T01:27:27.729Z,4.80
2019-03-15T01:29:54.323Z,4.82
2019-03-15T01:32:20.939Z,4.82
2019-03-15T01:34:47.547Z,4.81
2019-03-15T01:37:14.196Z,4.82
2019-03-15T01:39:40.793Z,4.82
2019-03-15T01:42:07.373Z,4.83
2019-03-15T01:44:33.983Z,4.86
2019-03-15T01:47:00.585Z,4.86
2019-03-15T01:49:27.178Z,4.86
2019-03-15T01:51:53.779Z,4.84
2019-03-15T01:54:20.373Z,4.82
2019-03-15T01:56:46.959Z,4.81
2019-03-15T01:59:13.573Z,4.80
2019-03-15T02:01:40.249Z,4.80
2019-03-15T02:04:06.861Z,4.80
2019-03-15T02:06:33.548Z,4.80
2019-03-15T02:09:00.151Z,4.79
2019-03-15T02:11:26.831Z,4.76
2019-03-15T02:13:53.429Z,4.74
2019-03-15T02:16:20.058Z,4.71
2019-03-15T02:18:46.750Z,4.68
2019-03-15T02:21:13.428Z,4.69
2019-03-15T02:23:40.028Z,4.69
2019-03-15T02:26:06.799Z,4.68
2019-03-15T02:28:33.395Z,4.70
2019-03-15T02:31:00.198Z,4.70
2019-03-15T02:33:26.905Z,4.71
2019-03-15T02:35:53.513Z,4.72
2019-03-15T02:38:20.205Z,4.73
2019-03-15T02:40:46.792Z,4.74
2019-03-15T02:43:13.381Z,4.73
2019-03-15T02:45:40.167Z,4.73
2019-03-15T02:48:06.789Z,4.70
2019-03-15T02:50:33.419Z,4.66
2019-03-15T02:53:00.016Z,4.56
2019-03-15T02:55:26.605Z,4.49
2019-03-15T02:57:53.201Z,4.46
2019-03-15T03:00:19.821Z,4.43
2019-03-15T03:02:46.508Z,4.43
2019-03-15T03:05:13.113Z,4.42
2019-03-15T03:07:39.733Z,4.39
2019-03-15T03:10:06.441Z,4.37
2019-03-15T03:12:33.121Z,4.39
2019-03-15T03:14:59.722Z,4.41
2019-03-15T03:17:26.432Z,4.40
2019-03-15T03:19:54.097Z,4.36
2019-03-15T03:22:31.869Z,4.31
2019-03-15T03:24:58.558Z,4.30
2019-03-15T03:27:25.191Z,4.28
2019-03-15T03:29:51.895Z,4.28
2019-03-15T03:32:18.553Z,4.29
2019-03-15T03:34:45.232Z,4.31
2019-03-15T03:37:11.950Z,4.32
2019-03-15T03:39:38.679Z,4.37
2019-03-15T03:42:05.386Z,4.38
2019-03-15T03:44:32.081Z,4.37
2019-03-15T03:46:58.719Z,4.38
2019-03-15T03:49:25.419Z,4.36
2019-03-15T03:51:52.119Z,4.32
2019-03-15T03:54:18.727Z,4.29
2019-03-15T03:56:45.361Z,4.27
2019-03-15T03:59:12.041Z,4.24
2019-03-15T04:01:38.635Z,4.22
2019-03-15T04:04:05.245Z,4.19
2019-03-15T04:06:31.861Z,4.17
2019-03-15T04:08:58.475Z,4.18
2019-03-15T04:11:25.093Z,4.21
2019-03-15T04:13:51.801Z,4.20
2019-03-15T04:16:18.496Z,4.19
2019-03-15T04:18:45.116Z,4.21
2019-03-15T04:21:11.755Z,4.22
2019-03-15T04:23:38.648Z,4.24
2019-03-15T04:26:17.114Z,4.27
2019-03-15T04:28:51.883Z,4.27
2019-03-15T04:31:18.493Z,4.26
2019-03-15T04:33:45.187Z,4.29
2019-03-15T04:36:11.785Z,4.30
2019-03-15T04:38:38.421Z,4.33
2019-03-15T04:41:05.014Z,4.42
2019-03-15T04:43:31.621Z,4.74
2019-03-15T04:45:58.317Z,4.91
2019-03-15T04:48:24.907Z,4.97
2019-03-15T04:50:51.518Z,5.03
2019-03-15T04:53:18.117Z,5.17
2019-03-15T04:55:44.718Z,5.28
2019-03-15T04:58:11.324Z,5.43
2019-03-15T05:00:37.930Z,5.40
2019-03-15T05:03:04.541Z,5.37
2019-03-15T05:05:31.137Z,5.33
2019-03-15T05:07:57.852Z,5.26
2019-03-15T05:10:24.456Z,5.20
2019-03-15T05:12:51.029Z,5.30
2019-03-15T05:15:17.638Z,5.33
2019-03-15T05:17:44.332Z,5.32
2019-03-15T05:20:10.974Z,5.40
2019-03-15T05:22:37.562Z,5.63
2019-03-15T05:25:04.247Z,5.79
2019-03-15T05:27:30.844Z,5.89
2019-03-15T05:29:57.454Z,5.93
2019-03-15T05:32:24.064Z,6.06
2019-03-15T05:34:50.657Z,6.10
2019-03-15T05:37:17.250Z,6.10
2019-03-15T05:39:43.964Z,5.97
2019-03-15T05:42:10.666Z,5.89
2019-03-15T05:44:37.394Z,5.75
2019-03-15T05:47:04.003Z,5.61
2019-03-15T05:49:30.729Z,5.60
2019-03-15T05:51:57.310Z,5.58
2019-03-15T05:54:23.932Z,5.51
2019-03-15T05:56:50.542Z,5.46
2019-03-15T05:59:17.222Z,5.38
2019-03-15T06:01:43.826Z,5.34
2019-03-15T06:04:10.466Z,5.30
2019-03-15T06:06:37.162Z,5.29
2019-03-15T06:09:04.518Z,5.27
2019-03-15T06:11:31.202Z,5.25
2019-03-15T06:13:57.810Z,5.23
2019-03-15T06:16:24.426Z,5.22
2019-03-15T06:18:51.011Z,5.20
2019-03-15T06:21:17.657Z,5.21
2019-03-15T06:23:44.362Z,5.21
2019-03-15T06:26:10.968Z,5.20
2019-03-15T06:28:37.581Z,5.23
2019-03-15T06:31:04.280Z,5.23
2019-03-15T06:33:31.125Z,5.22
2019-03-15T06:35:57.826Z,5.25
2019-03-15T06:38:24.529Z,5.32
2019-03-15T06:40:51.129Z,5.38
2019-03-15T06:43:17.753Z,5.43
2019-03-15T06:45:44.458Z,5.47
2019-03-15T06:48:11.177Z,5.46
2019-03-15T06:50:37.801Z,5.46
2019-03-15T06:53:04.454Z,5.53
2019-03-15T06:55:31.050Z,5.55
2019-03-15T06:57:57.747Z,5.61
2019-03-15T07:00:24.349Z,5.54
2019-03-15T07:02:51.045Z,5.48
2019-03-15T07:05:17.645Z,5.39
2019-03-15T07:07:44.243Z,5.36
2019-03-15T07:10:30.429Z,5.30
2019-03-15T07:12:57.029Z,5.30
2019-03-15T07:15:23.658Z,5.35
2019-03-15T07:17:50.278Z,5.40
2019-03-15T07:20:16.915Z,5.38
2019-03-15T07:22:43.521Z,5.42
2019-03-15T07:25:23.331Z,5.41
2019-03-15T07:27:49.931Z,5.35
2019-03-15T07:30:16.500Z,5.29
2019-03-15T07:32:43.116Z,5.28
2019-03-15T07:35:09.726Z,5.23
2019-03-15T07:37:36.458Z,5.15
2019-03-15T07:40:03.224Z,5.10
2019-03-15T07:42:29.816Z,5.07
2019-03-15T07:44:56.408Z,5.03
2019-03-15T07:47:23.010Z,4.98
2019-03-15T07:49:49.621Z,4.97
2019-03-15T07:52:16.347Z,4.93
2019-03-15T07:54:43.005Z,4.83
2019-03-15T07:57:09.718Z,4.77
2019-03-15T07:59:36.318Z,4.72
2019-03-15T08:02:02.955Z,4.72
2019-03-15T08:04:29.905Z,4.73
2019-03-15T08:06:56.514Z,4.76
2019-03-15T08:09:23.107Z,4.83
2019-03-15T08:11:49.721Z,4.87
2019-03-15T08:14:16.355Z,4.87
2019-03-15T08:16:43.062Z,4.93
2019-03-15T08:19:09.779Z,4.97
2019-03-15T08:21:36.475Z,5.06
2019-03-15T08:24:03.124Z,5.18
2019-03-15T08:26:30.257Z,5.26
2019-03-15T08:29:04.545Z,5.30
2019-03-15T08:31:31.251Z,5.31
2019-03-15T08:33:57.900Z,5.36
2019-03-15T08:36:24.627Z,5.39
2019-03-15T08:38:51.333Z,5.44
2019-03-15T08:41:18.039Z,5.48
2019-03-15T08:43:46.035Z,5.51
2019-03-15T08:46:23.202Z,5.56
2019-03-15T08:48:49.929Z,5.56
2019-03-15T08:51:16.533Z,5.54
2019-03-15T08:53:43.125Z,5.54
2019-03-15T08:56:09.837Z,5.53
2019-03-15T08:58:36.449Z,5.52
2019-03-15T09:01:03.177Z,5.53
2019-03-15T09:03:29.990Z,5.55
2019-03-15T09:05:56.738Z,5.61
2019-03-15T09:08:23.355Z,5.68
2019-03-15T09:10:50.060Z,5.72
2019-03-15T09:13:16.653Z,5.79
2019-03-15T09:15:43.270Z,5.85
2019-03-15T09:18:09.973Z,5.85
2019-03-15T09:20:36.605Z,5.89
2019-03-15T09:23:03.236Z,5.92
2019-03-15T09:25:29.944Z,5.95
2019-03-15T09:27:56.633Z,5.93
2019-03-15T09:30:24.449Z,5.88
2019-03-15T09:32:58.385Z,5.87
2019-03-15T09:35:25.104Z,5.87
2019-03-15T09:37:51.836Z,5.84
2019-03-15T09:40:18.368Z,5.81
2019-03-15T09:42:45.107Z,5.81
2019-03-15T09:45:11.835Z,5.76
2019-03-15T09:47:38.476Z,5.74
2019-03-15T09:50:05.631Z,5.74
2019-03-15T09:52:32.320Z,5.71
2019-03-15T09:54:58.986Z,5.69
2019-03-15T09:57:25.698Z,5.68
2019-03-15T09:59:52.318Z,5.69
2019-03-15T10:02:29.692Z,5.67
2019-03-15T10:05:09.683Z,5.64
2019-03-15T10:07:38.421Z,5.63
2019-03-15T10:10:13.594Z,5.62
2019-03-15T10:12:42.802Z,5.59
2019-03-15T10:15:09.920Z,5.60
2019-03-15T10:17:36.738Z,5.61
2019-03-15T10:20:03.712Z,5.62
2019-03-15T10:22:30.410Z,5.58
2019-03-15T10:24:57.055Z,5.53
2019-03-15T10:27:23.774Z,5.48
2019-03-15T10:29:50.497Z,5.49
2019-03-15T10:32:17.121Z,5.47
2019-03-15T10:34:43.744Z,5.48
2019-03-15T10:37:10.361Z,5.52
2019-03-15T10:39:37.036Z,5.50
2019-03-15T10:42:03.731Z,5.51
2019-03-15T10:44:30.328Z,5.54
2019-03-15T10:46:56.962Z,5.51
2019-03-15T10:49:23.675Z,5.54
2019-03-15T10:51:50.295Z,5.57
2019-03-15T10:54:16.922Z,5.64
2019-03-15T10:56:43.526Z,5.67
2019-03-15T10:59:10.240Z,5.67
2019-03-15T11:01:36.855Z,5.71
2019-03-15T11:04:03.501Z,5.78
2019-03-15T11:06:30.234Z,5.83
2019-03-15T11:08:56.934Z,5.84
2019-03-15T11:11:23.555Z,5.86
2019-03-15T11:13:50.147Z,5.89
2019-03-15T11:16:16.762Z,5.95
2019-03-15T11:18:43.398Z,6.10
2019-03-15T11:21:10.102Z,6.25
2019-03-15T11:23:36.701Z,6.45
2019-03-15T11:26:13.040Z,6.41
2019-03-15T11:28:38.240Z,6.30
2019-03-15T11:31:04.844Z,6.21
2019-03-15T11:33:31.457Z,6.40
2019-03-15T11:35:58.075Z,6.43
2019-03-15T11:38:24.770Z,6.44
2019-03-15T11:40:51.379Z,6.50
2019-03-15T11:43:18.113Z,6.44
2019-03-15T11:45:44.729Z,6.42
2019-03-15T11:48:11.382Z,6.40
2019-03-15T11:50:38.082Z,6.38
2019-03-15T11:53:04.707Z,6.42
2019-03-15T11:55:31.331Z,6.44
2019-03-15T11:57:58.076Z,6.49
2019-03-15T12:00:24.789Z,6.48
2019-03-15T12:02:51.501Z,6.45
2019-03-15T12:05:18.222Z,6.45
2019-03-15T12:07:44.910Z,6.47
2019-03-15T12:10:24.471Z,6.41
2019-03-15T12:12:51.171Z,6.38
2019-03-15T12:15:17.821Z,6.35
2019-03-15T12:17:44.517Z,6.35
2019-03-15T12:20:11.177Z,6.34
2019-03-15T12:22:37.911Z,6.32
2019-03-15T12:25:04.702Z,6.33
2019-03-15T12:27:31.434Z,6.33
2019-03-15T12:29:58.173Z,6.36
2019-03-15T12:32:24.799Z,6.39
2019-03-15T12:34:51.528Z,6.44
2019-03-15T12:37:18.239Z,6.46
2019-03-15T12:39:44.968Z,6.48
2019-03-15T12:42:11.696Z,6.53
2019-03-15T12:44:38.462Z,6.55
2019-03-15T12:47:06.332Z,6.61
2019-03-15T12:49:40.039Z,6.64
2019-03-15T12:52:06.773Z,6.69
2019-03-15T12:54:33.444Z,6.72
2019-03-15T12:57:00.038Z,6.76
2019-03-15T12:59:26.653Z,6.80
2019-03-15T13:01:53.280Z,6.86
2019-03-15T13:04:20.022Z,6.90
2019-03-15T13:06:46.635Z,6.94
2019-03-15T13:09:13.386Z,6.98
2019-03-15T13:11:40.102Z,6.98
2019-03-15T13:14:06.839Z,7.03
2019-03-15T13:16:33.556Z,7.07
2019-03-15T13:19:00.157Z,7.09
2019-03-15T13:21:26.879Z,7.13
2019-03-15T13:23:53.551Z,7.17
2019-03-15T13:26:20.239Z,7.23
2019-03-15T13:28:46.958Z,7.30
2019-03-15T13:31:13.675Z,7.37
2019-03-15T13:33:40.393Z,7.46
2019-03-15T13:36:07.206Z,7.54
2019-03-15T13:38:33.928Z,7.64
2019-03-15T13:41:00.555Z,7.74
2019-03-15T13:43:27.279Z,7.82
2019-03-15T13:45:54.012Z,7.91
2019-03-15T13:48:20.627Z,7.97
2019-03-15T13:50:47.253Z,8.03
2019-03-15T13:53:13.860Z,8.08
2019-03-15T13:55:40.511Z,8.14
2019-03-15T13:58:07.151Z,8.18
2019-03-15T14:00:33.862Z,8.24
2019-03-15T14:03:00.585Z,8.26
2019-03-15T14:05:27.209Z,8.29
2019-03-15T14:07:53.836Z,8.29
2019-03-15T14:10:20.373Z,8.33
2019-03-15T14:12:47.019Z,8.41
2019-03-15T14:15:13.756Z,8.42
2019-03-15T14:17:40.368Z,8.43
2019-03-15T14:20:07.815Z,8.45
2019-03-15T14:22:34.437Z,8.48
2019-03-15T14:25:01.046Z,8.46
2019-03-15T14:27:37.007Z,8.47
2019-03-15T14:30:06.449Z,8.49
2019-03-15T14:32:33.081Z,8.50
2019-03-15T14:34:59.795Z,8.47
2019-03-15T14:37:26.460Z,8.48
2019-03-15T14:39:53.196Z,8.50
2019-03-15T14:42:19.943Z,8.50
2019-03-15T14:44:46.687Z,8.50
2019-03-15T14:47:13.333Z,8.49
2019-03-15T14:49:40.049Z,8.50
2019-03-15T14:52:06.789Z,8.49
2019-03-15T14:54:33.402Z,8.47
2019-03-15T14:57:00.127Z,8.46
2019-03-15T14:59:26.726Z,8.49
2019-03-15T15:01:53.457Z,8.48
2019-03-15T15:04:20.157Z,8.47
2019-03-15T15:06:46.912Z,8.49
2019-03-15T15:09:13.534Z,8.47
2019-03-15T15:11:40.253Z,8.46
2019-03-15T15:14:06.968Z,8.43
2019-03-15T15:16:33.684Z,8.42
2019-03-15T15:19:00.405Z,8.47
2019-03-15T15:21:27.056Z,8.46
2019-03-15T15:23:53.774Z,8.47
2019-03-15T15:26:20.417Z,8.49
2019-03-15T15:28:47.160Z,8.47
2019-03-15T15:31:13.794Z,8.48
2019-03-15T15:33:40.526Z,8.46
2019-03-15T15:36:07.169Z,8.47
2019-03-15T15:38:33.882Z,8.48
2019-03-15T15:41:00.488Z,8.49
2019-03-15T15:43:27.128Z,8.49
2019-03-15T15:45:53.746Z,8.48
2019-03-15T15:48:20.451Z,8.47
2019-03-15T15:50:47.168Z,8.47
2019-03-15T15:53:13.890Z,8.46
2019-03-15T15:55:40.575Z,8.44
2019-03-15T15:58:17.429Z,8.43
2019-03-15T16:00:42.354Z,8.41
2019-03-15T16:03:09.072Z,8.39
2019-03-15T16:05:35.818Z,8.37
2019-03-15T16:08:02.535Z,8.36
2019-03-15T16:10:29.266Z,8.35
2019-03-15T16:12:55.973Z,8.34
2019-03-15T16:15:22.587Z,8.33
2019-03-15T16:17:49.234Z,8.31
2019-03-15T16:20:15.934Z,8.32
2019-03-15T16:22:42.551Z,8.32
2019-03-15T16:28:30.638Z,8.35
2019-03-15T16:30:52.353Z,8.38
2019-03-15T16:33:19.087Z,8.39
2019-03-15T16:35:45.736Z,8.39
2019-03-15T16:38:12.524Z,8.38
2019-03-15T16:40:39.235Z,8.38
2019-03-15T16:43:05.855Z,8.42
2019-03-15T16:45:32.482Z,8.44
2019-03-15T16:47:59.116Z,8.46
2019-03-15T16:50:25.755Z,8.48
2019-03-15T16:52:52.501Z,8.50
2019-03-15T16:55:19.813Z,8.53
2019-03-15T16:57:46.441Z,8.53
2019-03-15T17:00:13.178Z,8.53
2019-03-15T17:02:39.908Z,8.56
2019-03-15T17:05:07.098Z,8.60
2019-03-15T17:07:53.661Z,8.62
2019-03-15T17:10:20.410Z,8.66
2019-03-15T17:12:47.106Z,8.70
2019-03-15T17:15:13.847Z,8.78
2019-03-15T17:17:40.592Z,8.82
2019-03-15T17:20:07.577Z,8.86
2019-03-15T17:22:34.193Z,8.87
2019-03-15T17:25:00.887Z,8.87
2019-03-15T17:27:27.508Z,8.86
2019-03-15T17:29:54.222Z,8.88
2019-03-15T17:32:20.974Z,8.90
2019-03-15T17:34:47.657Z,8.90
2019-03-15T17:37:14.306Z,8.88
2019-03-15T17:39:43.932Z,8.89
2019-03-15T17:42:16.166Z,8.91
2019-03-15T17:44:42.785Z,8.95
2019-03-15T17:47:09.399Z,8.95
2019-03-15T17:49:36.005Z,8.96
2019-03-15T17:52:02.747Z,8.96
2019-03-15T17:54:29.479Z,8.98
2019-03-15T17:56:56.211Z,9.00
2019-03-15T17:59:22.817Z,9.01
2019-03-15T18:01:49.545Z,9.05
2019-03-15T18:04:16.155Z,9.05
2019-03-15T18:06:42.862Z,9.05
2019-03-15T18:09:09.552Z,9.03
2019-03-15T18:11:36.240Z,8.99
2019-03-15T18:14:02.852Z,8.98
2019-03-15T18:16:29.588Z,8.98
2019-03-15T18:18:56.303Z,8.99
2019-03-15T18:21:22.919Z,8.98
2019-03-15T18:23:49.612Z,9.02
2019-03-15T18:26:16.342Z,9.03
2019-03-15T18:28:43.060Z,9.07
2019-03-15T18:31:09.753Z,9.10
2019-03-15T18:33:36.393Z,9.08
2019-03-15T18:36:03.105Z,9.06
2019-03-15T18:38:29.742Z,9.03
2019-03-15T18:40:56.489Z,9.01
2019-03-15T18:43:23.206Z,9.01
2019-03-15T18:45:49.810Z,8.99
2019-03-15T18:48:16.419Z,8.97
2019-03-15T18:50:43.121Z,8.96
2019-03-15T18:53:09.724Z,8.96
2019-03-15T18:55:36.333Z,8.94
2019-03-15T18:58:03.043Z,8.94
2019-03-15T19:00:29.808Z,8.96
2019-03-15T19:03:00.121Z,8.95
2019-03-15T19:05:33.773Z,8.97
2019-03-15T19:08:00.469Z,8.98
2019-03-15T19:10:27.090Z,8.98
2019-03-15T19:12:53.704Z,8.99
2019-03-15T19:15:20.310Z,9.02
2019-03-15T19:17:46.946Z,9.05
2019-03-15T19:20:13.559Z,9.02
2019-03-15T19:22:40.423Z,9.07
2019-03-15T19:25:10.230Z,9.07
2019-03-15T19:27:37.088Z,9.07
2019-03-15T19:30:04.326Z,9.09
2019-03-15T19:32:33.358Z,9.07
2019-03-15T19:35:06.112Z,9.06
2019-03-15T19:37:32.858Z,9.03
2019-03-15T19:39:59.554Z,9.06
2019-03-15T19:42:26.244Z,9.07
2019-03-15T19:44:53.166Z,9.12
2019-03-15T19:47:19.867Z,9.12
2019-03-15T19:49:46.475Z,9.12
2019-03-15T19:52:13.105Z,9.18
2019-03-15T19:54:39.746Z,9.19
2019-03-15T19:57:06.564Z,9.20
2019-03-15T19:59:33.297Z,9.28
2019-03-15T20:01:59.995Z,9.31
2019-03-15T20:04:26.773Z,9.36
2019-03-15T20:06:55.372Z,9.35
2019-03-15T20:09:22.002Z,9.34
2019-03-15T20:11:48.711Z,9.30
2019-03-15T20:14:15.421Z,9.33
2019-03-15T20:16:42.046Z,9.37
2019-03-15T20:19:08.908Z,9.37
2019-03-15T20:21:35.600Z,9.42
2019-03-15T20:24:02.238Z,9.46
2019-03-15T20:26:28.939Z,9.59
2019-03-15T20:28:55.586Z,9.65
2019-03-15T20:31:22.372Z,9.68
2019-03-15T20:34:01.329Z,9.69
2019-03-15T20:36:27.416Z,9.70
2019-03-15T20:38:54.145Z,9.72
2019-03-15T20:41:20.849Z,9.73
2019-03-15T20:43:47.574Z,9.74
2019-03-15T20:46:15.903Z,9.76
2019-03-15T20:48:48.838Z,9.86
2019-03-15T20:51:15.555Z,9.84
2019-03-15T20:53:42.223Z,9.80
2019-03-15T20:56:08.933Z,9.87
2019-03-15T20:58:35.560Z,9.88
2019-03-15T21:01:02.364Z,9.90
2019-03-15T21:03:29.068Z,10.02
2019-03-15T21:05:55.705Z,10.00
2019-03-15T21:08:22.328Z,10.03
2019-03-15T21:10:51.489Z,10.04
2019-03-15T21:13:17.610Z,10.02
2019-03-15T21:15:44.335Z,10.07
2019-03-15T21:20:57.342Z,10.09
2019-03-15T21:23:23.961Z,10.04
2019-03-15T21:25:50.697Z,10.03
2019-03-15T21:28:17.345Z,10.10
2019-03-15T21:30:48.758Z,10.08
2019-03-15T21:33:19.250Z,10.09
2019-03-15T21:35:45.940Z,10.09
2019-03-15T21:38:12.552Z,10.07
2019-03-15T21:40:39.295Z,10.07
2019-03-15T21:43:06.027Z,10.04
2019-03-15T21:45:32.749Z,10.02
2019-03-15T21:47:59.494Z,10.00
2019-03-15T21:50:26.210Z,10.01
2019-03-15T21:52:52.930Z,9.98
2019-03-15T21:55:19.668Z,10.04
2019-03-15T21:57:46.363Z,10.08
2019-03-15T22:00:13.101Z,10.21
2019-03-15T22:02:39.825Z,10.21
2019-03-15T22:05:06.830Z,10.24
2019-03-15T22:07:33.520Z,10.20
2019-03-15T22:10:00.303Z,10.25
2019-03-15T22:12:27.045Z,10.22
2019-03-15T22:14:53.670Z,10.26
2019-03-15T22:17:20.279Z,10.24
2019-03-15T22:19:46.884Z,10.24
2019-03-15T22:22:13.585Z,10.20
2019-03-15T22:24:40.199Z,10.19
2019-03-15T22:27:06.902Z,10.19
2019-03-15T22:29:33.630Z,10.22
2019-03-15T22:32:00.335Z,10.23
2019-03-15T22:34:27.051Z,10.21
2019-03-15T22:36:53.768Z,10.24
2019-03-15T22:39:20.466Z,10.20
2019-03-15T22:41:47.168Z,10.13
2019-03-15T22:44:13.857Z,10.13
2019-03-15T22:46:40.481Z,10.08
2019-03-15T22:49:07.178Z,10.08
2019-03-15T22:51:33.893Z,10.09
2019-03-15T22:54:00.603Z,10.03
2019-03-15T22:56:27.330Z,10.03
2019-03-15T22:58:54.087Z,9.98
2019-03-15T23:01:30.212Z,10.00
2019-03-15T23:04:00.634Z,10.03
2019-03-15T23:06:27.256Z,9.99
2019-03-15T23:08:53.893Z,9.99
2019-03-15T23:11:20.509Z,9.94
2019-03-15T23:13:47.138Z,9.96
2019-03-15T23:16:13.783Z,9.98
2019-03-15T23:18:40.500Z,9.97
2019-03-15T23:21:07.182Z,9.92
2019-03-15T23:23:33.785Z,9.86
2019-03-15T23:26:00.519Z,9.84
2019-03-15T23:28:27.219Z,9.89
2019-03-15T23:30:56.933Z,9.87
2019-03-15T23:33:23.639Z,9.91
2019-03-15T23:35:54.187Z,9.87
2019-03-15T23:38:18.754Z,9.90
2019-03-15T23:40:45.389Z,9.87
2019-03-15T23:43:12.115Z,9.87
2019-03-15T23:45:38.746Z,9.88
2019-03-15T23:48:05.448Z,9.90
2019-03-15T23:50:32.071Z,9.91
2019-03-15T23:52:58.700Z,9.92
2019-03-15T23:55:25.392Z,9.88
2019-03-15T23:57:51.996Z,9.87
